createdAt,value
2023-07-17T00:00:12.266Z,27.50
2023-07-17T00:02:41.055Z,27.50
2023-07-17T00:05:11.025Z,27.50
2023-07-17T00:07:40.321Z,27.50
2023-07-17T00:10:10.940Z,27.40
2023-07-17T00:12:39.708Z,27.40
2023-07-17T00:15:08.713Z,27.40
2023-07-17T00:17:37.621Z,27.40
2023-07-17T00:20:07.847Z,27.40
2023-07-17T00:22:36.634Z,27.40
2023-07-17T00:25:06.102Z,27.40
2023-07-17T00:27:36.279Z,27.40
2023-07-17T00:30:05.180Z,27.40
2023-07-17T00:32:33.469Z,27.40
2023-07-17T00:35:01.732Z,27.40
2023-07-17T00:37:31.841Z,27.40
2023-07-17T00:40:00.054Z,27.30
2023-07-17T00:42:28.332Z,27.30
2023-07-17T00:44:57.808Z,27.30
2023-07-17T00:47:26.242Z,27.30
2023-07-17T00:49:55.310Z,27.30
2023-07-17T00:52:24.408Z,27.30
2023-07-17T00:54:53.667Z,27.30
2023-07-17T00:57:24.668Z,27.30
2023-07-17T00:59:53.475Z,27.30
2023-07-17T01:02:25.102Z,27.30
2023-07-17T01:04:54.044Z,27.30
2023-07-17T01:07:22.252Z,27.20
2023-07-17T01:09:50.521Z,27.30
2023-07-17T01:12:18.815Z,27.30
2023-07-17T01:14:48.348Z,27.30
2023-07-17T01:17:17.191Z,27.20
2023-07-17T01:19:47.536Z,27.30
2023-07-17T01:22:22.812Z,27.20
2023-07-17T01:24:53.507Z,27.20
2023-07-17T01:27:21.823Z,27.20
2023-07-17T01:29:50.162Z,27.20
2023-07-17T01:32:21.201Z,27.20
2023-07-17T01:34:49.537Z,27.20
2023-07-17T01:37:17.808Z,27.20
2023-07-17T01:39:45.997Z,27.20
2023-07-17T01:42:15.538Z,27.20
2023-07-17T01:44:43.698Z,27.20
2023-07-17T01:47:11.836Z,27.20
2023-07-17T01:49:40.046Z,27.20
2023-07-17T01:52:10.076Z,27.20
2023-07-17T01:54:39.334Z,27.20
2023-07-17T01:57:07.968Z,27.10
2023-07-17T01:59:38.004Z,27.10
2023-07-17T02:02:06.668Z,27.10
2023-07-17T02:04:34.943Z,27.10
2023-07-17T02:07:03.277Z,27.10
2023-07-17T02:09:31.534Z,27.10
2023-07-17T02:11:59.742Z,27.10
2023-07-17T02:14:27.927Z,27.10
2023-07-17T02:16:59.179Z,27.10
2023-07-17T02:19:28.673Z,27.10
2023-07-17T02:21:56.817Z,27.10
2023-07-17T02:24:24.986Z,27.10
2023-07-17T02:26:54.852Z,27.10
2023-07-17T02:29:23.074Z,27.10
2023-07-17T02:31:51.312Z,27.10
2023-07-17T02:34:21.658Z,27.10
2023-07-17T02:36:49.841Z,27.10
2023-07-17T02:39:17.980Z,27.00
2023-07-17T02:41:46.978Z,27.00
2023-07-17T02:44:15.840Z,27.00
2023-07-17T02:46:43.974Z,27.00
2023-07-17T02:49:14.972Z,27.00
2023-07-17T02:51:44.472Z,27.00
2023-07-17T02:54:12.822Z,27.00
2023-07-17T03:01:05.821Z,27.00
2023-07-17T03:03:33.983Z,27.00
2023-07-17T03:06:02.072Z,27.00
2023-07-17T03:08:31.551Z,27.00
2023-07-17T03:11:03.232Z,27.00
2023-07-17T03:13:31.454Z,27.00
2023-07-17T03:16:00.486Z,27.00
2023-07-17T03:18:29.340Z,27.00
2023-07-17T03:20:57.608Z,26.90
2023-07-17T03:23:25.821Z,26.90
2023-07-17T03:25:57.550Z,26.90
2023-07-17T03:28:25.722Z,26.90
2023-07-17T03:30:57.231Z,26.80
2023-07-17T03:33:26.096Z,26.80
2023-07-17T03:35:54.425Z,26.80
2023-07-17T03:38:22.621Z,26.80
2023-07-17T03:40:50.761Z,26.80
2023-07-17T03:43:20.291Z,26.80
2023-07-17T03:45:52.435Z,26.70
2023-07-17T03:48:23.605Z,26.70
2023-07-17T03:50:52.292Z,26.70
2023-07-17T03:53:20.841Z,26.70
2023-07-17T03:55:49.040Z,26.70
2023-07-17T03:58:17.301Z,26.70
2023-07-17T04:00:46.888Z,26.70
2023-07-17T04:03:15.373Z,26.70
2023-07-17T04:05:46.471Z,26.70
2023-07-17T04:08:14.662Z,26.70
2023-07-17T04:10:43.022Z,26.70
2023-07-17T04:13:11.269Z,26.70
2023-07-17T04:15:39.530Z,26.70
2023-07-17T04:18:13.490Z,26.70
2023-07-17T04:20:42.151Z,26.70
2023-07-17T04:23:11.316Z,26.70
2023-07-17T04:25:44.067Z,26.70
2023-07-17T04:28:13.200Z,26.70
2023-07-17T04:30:42.539Z,26.70
2023-07-17T04:33:14.503Z,26.70
2023-07-17T04:35:44.112Z,26.70
2023-07-17T04:38:12.553Z,26.70
2023-07-17T04:40:41.594Z,26.70
2023-07-17T04:43:10.724Z,26.70
2023-07-17T04:45:43.274Z,26.70
2023-07-17T04:48:16.809Z,26.80
2023-07-17T04:50:48.284Z,26.80
2023-07-17T04:53:16.600Z,26.80
2023-07-17T04:55:44.864Z,26.80
2023-07-17T04:58:13.081Z,26.80
2023-07-17T05:00:44.070Z,26.90
2023-07-17T05:03:12.358Z,26.90
2023-07-17T05:05:42.055Z,26.90
2023-07-17T05:08:10.931Z,26.90
2023-07-17T05:10:39.210Z,26.90
2023-07-17T05:13:07.664Z,26.90
2023-07-17T05:15:35.985Z,27.00
2023-07-17T05:18:05.812Z,27.10
2023-07-17T05:20:34.051Z,27.10
2023-07-17T05:23:03.659Z,27.10
2023-07-17T05:25:32.169Z,27.10
2023-07-17T05:28:00.380Z,27.20
2023-07-17T05:30:28.734Z,27.20
2023-07-17T05:32:57.052Z,27.20
2023-07-17T05:35:25.414Z,27.30
2023-07-17T05:37:55.340Z,27.30
2023-07-17T05:40:25.575Z,27.60
2023-07-17T05:42:53.773Z,28.10
2023-07-17T05:45:22.359Z,28.50
2023-07-17T05:47:51.316Z,28.80
2023-07-17T05:50:20.309Z,29.00
2023-07-17T05:52:48.814Z,29.00
2023-07-17T05:55:17.435Z,29.10
2023-07-17T05:57:46.959Z,29.00
2023-07-17T06:00:15.895Z,28.90
2023-07-17T06:02:46.938Z,28.70
2023-07-17T06:05:15.942Z,28.50
2023-07-17T06:07:44.137Z,28.30
2023-07-17T06:10:13.733Z,28.20
2023-07-17T06:12:41.981Z,28.10
2023-07-17T06:15:14.450Z,28.00
2023-07-17T06:17:42.653Z,27.90
2023-07-17T06:20:11.433Z,27.80
2023-07-17T06:22:39.774Z,27.80
2023-07-17T06:25:08.474Z,27.70
2023-07-17T06:27:36.829Z,27.70
2023-07-17T06:30:05.769Z,27.70
2023-07-17T06:32:35.511Z,27.70
2023-07-17T06:35:06.504Z,27.70
2023-07-17T06:37:34.849Z,27.70
2023-07-17T06:40:04.493Z,27.70
2023-07-17T06:42:34.241Z,27.70
2023-07-17T06:45:02.638Z,27.70
2023-07-17T06:47:37.203Z,27.70
2023-07-17T06:50:08.979Z,27.70
2023-07-17T06:52:39.167Z,27.70
2023-07-17T06:55:09.700Z,27.70
2023-07-17T06:57:37.853Z,27.70
2023-07-17T07:00:07.658Z,27.80
2023-07-17T07:02:37.547Z,27.80
2023-07-17T07:05:10.087Z,27.80
2023-07-17T07:07:38.355Z,27.80
2023-07-17T07:10:07.882Z,27.80
2023-07-17T07:12:36.074Z,27.80
2023-07-17T07:15:04.445Z,27.80
2023-07-17T07:17:32.905Z,27.80
2023-07-17T07:20:01.072Z,27.90
2023-07-17T07:22:30.651Z,27.80
2023-07-17T07:24:59.006Z,27.80
2023-07-17T07:27:28.019Z,27.80
2023-07-17T07:29:59.413Z,27.80
2023-07-17T07:32:27.659Z,27.80
2023-07-17T07:34:55.831Z,27.90
2023-07-17T07:37:24.030Z,27.90
2023-07-17T07:39:53.538Z,27.90
2023-07-17T07:42:21.718Z,27.90
2023-07-17T07:44:49.917Z,27.90
2023-07-17T07:47:18.218Z,27.90
2023-07-17T07:49:48.537Z,27.90
2023-07-17T07:52:17.083Z,28.00
2023-07-17T07:54:46.088Z,28.00
2023-07-17T07:57:15.705Z,28.00
2023-07-17T07:59:43.876Z,28.00
2023-07-17T08:02:13.193Z,28.00
2023-07-17T08:04:41.541Z,28.00
2023-07-17T08:07:09.775Z,28.00
2023-07-17T08:09:38.083Z,28.10
2023-07-17T08:12:07.003Z,28.00
2023-07-17T08:14:36.534Z,28.00
2023-07-17T08:17:04.835Z,27.90
2023-07-17T08:19:32.997Z,27.90
2023-07-17T08:22:01.164Z,27.90
2023-07-17T08:24:29.340Z,28.00
2023-07-17T08:26:57.522Z,28.00
2023-07-17T08:29:26.075Z,28.00
2023-07-17T08:31:55.886Z,28.00
2023-07-17T08:34:25.201Z,28.10
2023-07-17T08:36:53.383Z,28.10
2023-07-17T08:39:21.492Z,28.00
2023-07-17T08:41:51.693Z,28.00
2023-07-17T08:44:20.314Z,28.00
2023-07-17T08:46:49.375Z,27.90
2023-07-17T08:49:21.286Z,28.00
2023-07-17T08:51:51.156Z,28.00
2023-07-17T08:54:28.680Z,28.00
2023-07-17T08:57:03.398Z,28.00
2023-07-17T08:59:32.171Z,28.10
2023-07-17T09:02:01.528Z,28.10
2023-07-17T09:04:32.862Z,28.00
2023-07-17T09:07:01.086Z,28.00
2023-07-17T09:09:29.291Z,28.00
2023-07-17T09:12:09.297Z,28.00
2023-07-17T09:14:38.105Z,28.10
2023-07-17T09:17:08.760Z,28.10
2023-07-17T09:19:38.996Z,28.10
2023-07-17T09:22:08.524Z,28.10
2023-07-17T09:24:38.073Z,28.10
2023-07-17T09:27:07.751Z,28.10
2023-07-17T09:29:36.019Z,28.00
2023-07-17T09:32:19.754Z,28.00
2023-07-17T09:34:53.785Z,28.00
2023-07-17T09:37:22.059Z,28.00
2023-07-17T09:39:53.961Z,28.00
2023-07-17T09:42:25.315Z,28.10
2023-07-17T09:44:54.741Z,28.10
2023-07-17T09:47:23.320Z,28.10
2023-07-17T09:49:53.141Z,28.00
2023-07-17T09:52:21.295Z,28.00
2023-07-17T09:54:52.330Z,28.00
2023-07-17T09:57:28.972Z,28.10
2023-07-17T10:00:04.202Z,28.10
2023-07-17T10:02:38.776Z,28.10
2023-07-17T10:05:09.556Z,28.00
2023-07-17T10:07:40.961Z,28.10
2023-07-17T10:10:10.359Z,28.10
2023-07-17T10:12:40.558Z,28.20
2023-07-17T10:15:10.763Z,28.20
2023-07-17T10:17:38.976Z,28.20
2023-07-17T10:20:12.048Z,28.20
2023-07-17T10:22:45.222Z,28.20
2023-07-17T10:25:25.545Z,28.20
2023-07-17T10:27:58.041Z,28.20
2023-07-17T10:30:28.799Z,28.30
2023-07-17T10:33:12.673Z,28.30
2023-07-17T10:35:50.068Z,28.40
2023-07-17T10:38:19.537Z,28.40
2023-07-17T10:40:47.939Z,28.40
2023-07-17T10:43:18.400Z,28.40
2023-07-17T10:45:50.676Z,28.30
2023-07-17T10:48:19.741Z,28.30
2023-07-17T10:50:53.514Z,28.30
2023-07-17T10:53:22.817Z,28.30
2023-07-17T10:55:51.195Z,28.30
2023-07-17T10:58:20.867Z,28.30
2023-07-17T11:00:49.686Z,28.30
2023-07-17T11:03:18.947Z,28.30
2023-07-17T11:05:47.641Z,28.30
2023-07-17T11:08:17.391Z,28.30
2023-07-17T11:10:47.089Z,28.30
2023-07-17T11:13:15.353Z,28.30
2023-07-17T11:15:45.174Z,28.30
2023-07-17T11:18:13.639Z,28.30
2023-07-17T11:20:41.982Z,28.30
2023-07-17T11:23:13.570Z,28.30
2023-07-17T11:25:43.991Z,28.30
2023-07-17T11:28:12.446Z,28.30
2023-07-17T11:30:41.133Z,28.30
2023-07-17T11:33:10.384Z,28.30
2023-07-17T11:35:47.055Z,28.30
2023-07-17T11:38:16.577Z,28.30
2023-07-17T11:40:57.087Z,28.30
2023-07-17T11:43:27.832Z,28.30
2023-07-17T11:45:58.322Z,28.30
2023-07-17T11:48:27.244Z,28.40
2023-07-17T11:50:57.633Z,28.40
2023-07-17T11:53:27.643Z,28.40
2023-07-17T11:55:57.393Z,28.40
2023-07-17T11:58:27.889Z,28.40
2023-07-17T12:00:57.081Z,28.40
2023-07-17T12:03:25.930Z,28.40
2023-07-17T12:05:54.578Z,28.40
2023-07-17T12:08:22.698Z,28.50
2023-07-17T12:10:51.512Z,28.50
2023-07-17T12:13:21.022Z,28.50
2023-07-17T12:15:49.278Z,28.50
2023-07-17T12:18:17.505Z,28.50
2023-07-17T12:20:45.662Z,28.60
2023-07-17T12:23:15.683Z,28.60
2023-07-17T12:25:44.140Z,28.50
2023-07-17T12:28:12.295Z,28.50
2023-07-17T12:30:42.577Z,28.50
2023-07-17T12:33:10.747Z,28.50
2023-07-17T12:35:38.992Z,28.50
2023-07-17T12:38:07.116Z,28.50
2023-07-17T12:40:35.344Z,28.50
2023-07-17T12:43:03.929Z,28.50
2023-07-17T12:45:32.755Z,28.50
2023-07-17T12:48:02.452Z,28.50
2023-07-17T12:50:30.960Z,28.50
2023-07-17T12:52:59.110Z,28.50
2023-07-17T12:55:27.300Z,28.50
2023-07-17T12:57:55.530Z,28.50
2023-07-17T13:00:23.771Z,28.50
2023-07-17T13:02:52.278Z,28.50
2023-07-17T13:05:22.119Z,28.50
2023-07-17T13:07:51.555Z,28.50
2023-07-17T13:10:20.306Z,28.50
2023-07-17T13:12:49.868Z,28.50
2023-07-17T13:15:18.968Z,28.40
2023-07-17T13:17:47.318Z,28.40
2023-07-17T13:20:16.131Z,28.40
2023-07-17T13:22:45.690Z,28.40
2023-07-17T13:25:13.951Z,28.40
2023-07-17T13:27:42.071Z,28.40
2023-07-17T13:30:10.883Z,28.40
2023-07-17T13:32:40.649Z,28.40
2023-07-17T13:35:09.631Z,28.40
2023-07-17T13:37:37.674Z,28.30
2023-07-17T13:40:08.350Z,28.40
2023-07-17T13:42:36.418Z,28.30
2023-07-17T13:45:05.144Z,28.40
2023-07-17T13:47:33.481Z,28.40
2023-07-17T13:50:02.540Z,28.40
2023-07-17T13:52:30.770Z,28.40
2023-07-17T13:54:58.995Z,28.40
2023-07-17T13:57:28.614Z,28.40
2023-07-17T13:59:57.437Z,28.40
2023-07-17T14:02:25.752Z,28.50
2023-07-17T14:04:54.362Z,28.50
2023-07-17T14:07:22.618Z,28.40
2023-07-17T14:09:50.851Z,28.40
2023-07-17T14:12:18.996Z,28.40
2023-07-17T14:14:48.593Z,28.40
2023-07-17T14:17:16.762Z,28.30
2023-07-17T14:19:44.979Z,28.30
2023-07-17T14:22:13.055Z,28.30
2023-07-17T14:24:42.826Z,28.30
2023-07-17T14:27:12.690Z,28.30
2023-07-17T14:29:40.806Z,28.30
2023-07-17T14:32:11.045Z,28.30
2023-07-17T14:34:41.497Z,28.30
2023-07-17T14:37:09.865Z,28.30
2023-07-17T14:39:38.020Z,28.30
2023-07-17T14:42:06.881Z,28.30
2023-07-17T14:44:35.119Z,28.30
2023-07-17T14:47:03.337Z,28.30
2023-07-17T14:49:32.856Z,28.30
2023-07-17T14:52:00.963Z,28.30
2023-07-17T14:54:29.131Z,28.40
2023-07-17T14:56:57.496Z,28.40
2023-07-17T14:59:25.741Z,28.40
2023-07-17T15:01:53.998Z,28.50
2023-07-17T15:04:22.316Z,28.40
2023-07-17T15:06:51.917Z,28.40
2023-07-17T15:09:20.104Z,28.40
2023-07-17T15:11:48.414Z,28.40
2023-07-17T15:14:26.156Z,28.40
2023-07-17T15:16:55.844Z,28.40
2023-07-17T15:19:24.102Z,28.40
2023-07-17T15:21:53.691Z,28.40
2023-07-17T15:24:21.875Z,28.40
2023-07-17T15:26:50.140Z,28.40
2023-07-17T15:29:18.281Z,28.40
2023-07-17T15:31:46.518Z,28.50
2023-07-17T15:34:15.331Z,28.50
2023-07-17T15:36:43.570Z,28.50
2023-07-17T15:39:13.091Z,28.50
2023-07-17T15:41:41.203Z,28.60
2023-07-17T15:44:09.469Z,28.50
2023-07-17T15:46:37.657Z,28.60
2023-07-17T15:49:06.008Z,28.60
2023-07-17T15:51:34.266Z,28.60
2023-07-17T15:54:03.107Z,28.60
2023-07-17T15:56:32.695Z,28.60
2023-07-17T15:59:00.909Z,28.60
2023-07-17T16:01:29.176Z,28.60
2023-07-17T16:03:57.338Z,28.60
2023-07-17T16:06:25.623Z,28.60
2023-07-17T16:08:54.002Z,28.60
2023-07-17T16:11:22.678Z,28.60
2023-07-17T16:13:52.347Z,28.60
2023-07-17T16:16:21.883Z,28.60
2023-07-17T16:18:50.287Z,28.60
2023-07-17T16:21:18.755Z,28.60
2023-07-17T16:23:48.094Z,28.60
2023-07-17T16:26:17.196Z,28.60
2023-07-17T16:28:45.643Z,28.60
2023-07-17T16:31:15.178Z,28.60
2023-07-17T16:33:43.354Z,28.60
2023-07-17T16:36:11.679Z,28.60
2023-07-17T16:38:39.947Z,28.60
2023-07-17T16:41:10.304Z,28.60
2023-07-17T16:43:38.572Z,28.60
2023-07-17T16:46:06.748Z,28.50
2023-07-17T16:48:36.264Z,28.50
2023-07-17T16:51:04.639Z,28.60
2023-07-17T16:53:33.382Z,28.50
2023-07-17T16:56:01.580Z,28.50
2023-07-17T16:58:29.819Z,28.50
2023-07-17T17:00:57.944Z,28.50
2023-07-17T17:03:26.520Z,28.50
2023-07-17T17:05:56.167Z,28.50
2023-07-17T17:08:24.427Z,28.40
2023-07-17T17:10:52.974Z,28.40
2023-07-17T17:13:21.454Z,28.40
2023-07-17T17:15:50.819Z,28.40
2023-07-17T17:18:19.103Z,28.40
2023-07-17T17:20:47.284Z,28.40
2023-07-17T17:23:16.864Z,28.30
2023-07-17T17:25:45.054Z,28.30
2023-07-17T17:28:13.216Z,28.30
2023-07-17T17:30:41.712Z,28.30
2023-07-17T17:33:10.643Z,28.30
2023-07-17T17:35:38.786Z,28.30
2023-07-17T17:38:10.000Z,28.30
2023-07-17T17:40:40.797Z,28.30
2023-07-17T17:43:08.999Z,28.20
2023-07-17T17:45:37.301Z,28.20
2023-07-17T17:48:05.747Z,28.20
2023-07-17T17:50:34.014Z,28.20
2023-07-17T17:53:04.572Z,28.20
2023-07-17T17:55:32.732Z,28.20
2023-07-17T17:58:02.335Z,28.10
2023-07-17T18:00:30.519Z,28.10
2023-07-17T18:02:58.922Z,28.10
2023-07-17T18:05:28.243Z,28.10
2023-07-17T18:07:56.468Z,28.10
2023-07-17T18:10:24.641Z,28.10
2023-07-17T18:12:53.244Z,28.10
2023-07-17T18:15:22.799Z,28.00
2023-07-17T18:17:50.966Z,28.00
2023-07-17T18:20:19.245Z,28.00
2023-07-17T18:22:47.388Z,28.00
2023-07-17T18:25:15.587Z,28.00
2023-07-17T18:27:43.669Z,28.00
2023-07-17T18:30:12.682Z,28.00
2023-07-17T18:32:42.298Z,28.00
2023-07-17T18:35:11.044Z,28.00
2023-07-17T18:37:39.193Z,28.00
2023-07-17T18:40:10.634Z,28.00
2023-07-17T18:42:38.956Z,27.90
2023-07-17T18:45:10.139Z,28.00
2023-07-17T18:47:38.582Z,27.90
2023-07-17T18:50:08.989Z,27.90
2023-07-17T18:52:37.288Z,27.90
2023-07-17T18:55:05.933Z,27.90
2023-07-17T18:57:34.112Z,27.90
2023-07-17T19:00:05.006Z,27.90
2023-07-17T19:02:33.199Z,27.90
2023-07-17T19:05:01.456Z,27.90
2023-07-17T19:07:31.139Z,27.90
2023-07-17T19:09:59.302Z,27.90
2023-07-17T19:12:27.602Z,27.80
2023-07-17T19:14:55.837Z,27.90
2023-07-17T19:17:25.090Z,27.90
2023-07-17T19:19:53.322Z,27.90
2023-07-17T19:22:21.498Z,27.80
2023-07-17T19:24:51.133Z,27.80
2023-07-17T19:27:19.229Z,27.80
2023-07-17T19:29:47.367Z,27.80
2023-07-17T19:32:17.932Z,27.80
2023-07-17T19:34:47.303Z,27.80
2023-07-17T19:37:15.914Z,27.70
2023-07-17T19:39:44.238Z,27.80
2023-07-17T19:42:14.858Z,27.70
2023-07-17T19:44:43.073Z,27.70
2023-07-17T19:47:11.213Z,27.70
2023-07-17T19:49:39.392Z,27.70
2023-07-17T19:52:08.075Z,27.70
2023-07-17T19:54:36.382Z,27.60
2023-07-17T19:57:04.698Z,27.60
2023-07-17T19:59:34.279Z,27.60
2023-07-17T20:02:02.407Z,27.60
2023-07-17T20:04:31.401Z,27.60
2023-07-17T20:06:59.695Z,27.60
2023-07-17T20:09:32.995Z,27.60
2023-07-17T20:12:03.156Z,27.50
2023-07-17T20:14:31.508Z,27.50
2023-07-17T20:17:01.037Z,27.50
2023-07-17T20:19:29.122Z,27.50
2023-07-17T20:21:58.348Z,27.50
2023-07-17T20:24:26.775Z,27.50
2023-07-17T20:26:54.929Z,27.50
2023-07-17T20:29:25.070Z,27.50
2023-07-17T20:31:53.437Z,27.50
2023-07-17T20:34:23.073Z,27.50
2023-07-17T20:36:51.212Z,27.50
2023-07-17T20:39:19.360Z,27.50
2023-07-17T20:41:47.480Z,27.50
2023-07-17T20:44:15.641Z,27.40
2023-07-17T20:46:44.176Z,27.50
2023-07-17T20:49:12.380Z,27.50
2023-07-17T20:51:41.864Z,27.50
2023-07-17T20:54:10.356Z,27.40
2023-07-17T20:56:38.490Z,27.40
2023-07-17T20:59:07.055Z,27.40
2023-07-17T21:01:35.258Z,27.40
2023-07-17T21:04:05.538Z,27.40
2023-07-17T21:06:33.790Z,27.40
2023-07-17T21:09:03.244Z,27.40
2023-07-17T21:11:31.444Z,27.40
2023-07-17T21:14:00.311Z,27.40
2023-07-17T21:16:28.517Z,27.40
2023-07-17T21:18:56.635Z,27.40
2023-07-17T21:21:24.794Z,27.30
2023-07-17T21:23:52.982Z,27.30
2023-07-17T21:26:22.481Z,27.30
2023-07-17T21:28:58.094Z,27.30
2023-07-17T21:31:26.504Z,27.30
2023-07-17T21:33:54.844Z,27.30
2023-07-17T21:36:23.063Z,27.30
2023-07-17T21:38:51.423Z,27.30
2023-07-17T21:41:19.715Z,27.30
2023-07-17T21:43:50.147Z,27.30
2023-07-17T21:46:18.463Z,27.20
2023-07-17T21:48:46.565Z,27.30
2023-07-17T21:51:17.157Z,27.20
2023-07-17T21:53:45.657Z,27.20
2023-07-17T21:56:14.267Z,27.20
2023-07-17T21:58:42.396Z,27.20
2023-07-17T22:01:13.471Z,27.20
2023-07-17T22:03:42.302Z,27.20
2023-07-17T22:06:10.676Z,27.20
2023-07-17T22:08:38.817Z,27.20
2023-07-17T22:11:06.907Z,27.20
2023-07-17T22:13:36.082Z,27.20
2023-07-17T22:16:04.987Z,27.20
2023-07-17T22:18:36.813Z,27.10
2023-07-17T22:21:05.239Z,27.10
2023-07-17T22:23:33.443Z,27.10
2023-07-17T22:26:01.542Z,27.10
2023-07-17T22:28:30.470Z,27.10
2023-07-17T22:30:58.601Z,27.10
2023-07-17T22:33:26.753Z,27.10
2023-07-17T22:35:56.432Z,27.10
2023-07-17T22:38:24.580Z,27.10
2023-07-17T22:40:52.801Z,27.10
2023-07-17T22:43:21.039Z,27.00
2023-07-17T22:45:52.156Z,27.00
2023-07-17T22:48:21.286Z,27.00
2023-07-17T22:50:49.877Z,27.00
2023-07-17T22:53:19.401Z,27.00
2023-07-17T22:55:47.600Z,27.00
2023-07-17T22:58:15.773Z,27.00
2023-07-17T23:00:44.179Z,27.00
2023-07-17T23:03:12.601Z,27.00
2023-07-17T23:05:40.736Z,26.90
2023-07-17T23:08:09.305Z,27.00
2023-07-17T23:10:38.843Z,26.90
2023-07-17T23:13:08.701Z,26.90
2023-07-17T23:15:38.687Z,26.90
2023-07-17T23:18:07.002Z,26.90
2023-07-17T23:20:35.536Z,26.90
2023-07-17T23:23:05.919Z,26.90
2023-07-17T23:25:34.517Z,26.90
2023-07-17T23:28:04.068Z,26.90
2023-07-17T23:30:32.288Z,26.80
2023-07-17T23:33:00.454Z,26.80
2023-07-17T23:35:28.596Z,26.80
2023-07-17T23:37:56.799Z,26.80
2023-07-17T23:40:25.472Z,26.80
2023-07-17T23:42:59.048Z,26.80
2023-07-17T23:45:28.739Z,26.80
2023-07-17T23:47:57.106Z,26.80
2023-07-17T23:50:25.689Z,26.70
2023-07-17T23:52:54.366Z,26.70
2023-07-17T23:55:22.619Z,26.70
2023-07-17T23:57:51.105Z,26.70
